Time;durP1;ratioP1;P1;durP2;ratioP2;P2;SDS_P1;SDS_P2;PMS_P1;PMS_P2;Temp;Humidity;BMP_temperature;BMP_pressure;BME280_temperature;BME280_humidity;BME280_pressure;Samples;Min_cycle;Max_cycle;Signal;HPM_P1;HPM_P2
2023/03/03 00:01:20;;;;;;;135.37;65.90;;;;;;;;;;769474;181;938557;-67
2023/03/03 00:03:45;;;;;;;124.87;67.93;;;;;;;;;;774250;180;919300;-65
2023/03/03 00:06:11;;;;;;;124.77;66.27;;;;;;;;;;771638;181;919232;-66
2023/03/03 00:08:37;;;;;;;116.83;63.80;;;;;;;;;;774673;181;909764;-64
2023/03/03 00:11:05;;;;;;;120.07;66.17;;;;;;;;;;772730;180;866534;-66
2023/03/03 00:13:29;;;;;;;138.07;69.77;;;;;;;;;;773544;180;818375;-64
2023/03/03 00:15:55;;;;;;;115.53;65.97;;;;;;;;;;776690;181;920889;-68
2023/03/03 00:18:25;;;;;;;139.93;71.77;;;;;;;;;;769439;181;920107;-65
2023/03/03 00:20:52;;;;;;;115.37;65.67;;;;;;;;;;765512;182;918706;-64
2023/03/03 00:23:19;;;;;;;129.97;62.40;;;;;;;;;;773715;181;922346;-65
2023/03/03 00:25:45;;;;;;;114.27;60.23;;;;;;;;;;776236;179;609750;-66
2023/03/03 00:28:12;;;;;;;135.57;65.20;;;;;;;;;;762296;182;919084;-65
2023/03/03 00:30:38;;;;;;;133.03;66.10;;;;;;;;;;763137;182;920367;-64
2023/03/03 00:33:04;;;;;;;137.30;67.57;;;;;;;;;;780840;179;910428;-66
2023/03/03 00:35:34;;;;;;;123.33;60.90;;;;;;;;;;774292;181;819618;-66
2023/03/03 00:37:56;;;;;;;146.77;70.17;;;;;;;;;;771750;181;920275;-66
2023/03/03 00:40:23;;;;;;;135.10;67.53;;;;;;;;;;778696;180;628150;-65
2023/03/03 00:42:49;;;;;;;133.00;65.30;;;;;;;;;;772722;181;617239;-67
2023/03/03 00:45:17;;;;;;;132.83;67.73;;;;;;;;;;759518;180;891802;-65
2023/03/03 00:47:43;;;;;;;121.85;67.30;;;;;;;;;;759360;184;919071;-68
2023/03/03 00:50:24;;;;;;;120.90;65.30;;;;;;;;;;767925;184;818293;-66
2023/03/03 00:52:56;;;;;;;111.17;66.07;;;;;;;;;;765304;181;910212;-65
2023/03/03 00:55:21;;;;;;;129.43;67.50;;;;;;;;;;768435;182;918503;-65
2023/03/03 00:57:47;;;;;;;126.13;69.43;;;;;;;;;;767544;180;922588;-67
2023/03/03 01:00:14;;;;;;;119.70;62.72;;;;;;;;;;768234;182;1021387;-65
2023/03/03 01:02:39;;;;;;;116.73;62.90;;;;;;;;;;768754;181;815548;-66
2023/03/03 01:05:05;;;;;;;127.47;66.27;;;;;;;;;;760443;182;918989;-65
2023/03/03 01:07:31;;;;;;;118.83;64.30;;;;;;;;;;768760;181;1021916;-65
2023/03/03 01:09:57;;;;;;;117.17;61.53;;;;;;;;;;778963;181;913206;-66
2023/03/03 01:12:23;;;;;;;112.87;59.10;;;;;;;;;;775498;181;635356;-66
2023/03/03 01:14:51;;;;;;;129.00;63.90;;;;;;;;;;773828;181;628278;-65
2023/03/03 01:17:15;;;;;;;118.83;58.17;;;;;;;;;;779017;181;626874;-66
2023/03/03 01:19:40;;;;;;;104.15;54.58;;;;;;;;;;765888;181;818890;-65
2023/03/03 01:22:06;;;;;;;105.27;53.60;;;;;;;;;;767139;182;916961;-65
2023/03/03 01:24:33;;;;;;;99.83;55.83;;;;;;;;;;775175;179;853146;-65
2023/03/03 01:26:59;;;;;;;117.07;60.27;;;;;;;;;;769153;182;643378;-65
2023/03/03 01:29:24;;;;;;;108.57;59.80;;;;;;;;;;776046;181;890394;-64
2023/03/03 01:31:50;;;;;;;120.97;63.90;;;;;;;;;;772381;181;917394;-64
2023/03/03 01:34:16;;;;;;;108.47;59.77;;;;;;;;;;777900;181;917359;-67
2023/03/03 01:36:42;;;;;;;118.03;61.87;;;;;;;;;;772950;181;919000;-66
2023/03/03 01:39:08;;;;;;;116.47;65.80;;;;;;;;;;776190;180;918534;-66
2023/03/03 01:41:34;;;;;;;123.40;64.97;;;;;;;;;;776432;181;918556;-66
2023/03/03 01:44:00;;;;;;;128.20;68.03;;;;;;;;;;766724;179;918721;-64
2023/03/03 01:46:41;;;;;;;117.03;64.83;;;;;;;;;;766823;179;918868;-65
2023/03/03 01:49:07;;;;;;;139.40;78.83;;;;;;;;;;765009;179;1021866;-66
2023/03/03 01:51:33;;;;;;;146.47;81.97;;;;;;;;;;773483;179;783431;-67
2023/03/03 01:53:59;;;;;;;133.50;75.37;;;;;;;;;;766820;179;917002;-66
2023/03/03 01:56:25;;;;;;;144.10;74.80;;;;;;;;;;768325;182;918961;-67
2023/03/03 01:58:50;;;;;;;161.83;80.67;;;;;;;;;;774168;180;918225;-68
2023/03/03 02:01:16;;;;;;;166.43;85.07;;;;;;;;;;777487;181;919223;-66
2023/03/03 02:03:42;;;;;;;154.13;82.20;;;;;;;;;;775560;181;803713;-68
2023/03/03 02:06:09;;;;;;;158.10;82.12;;;;;;;;;;771239;181;817150;-66
2023/03/03 02:08:49;;;;;;;169.37;86.10;;;;;;;;;;779937;179;815202;-66
2023/03/03 02:11:15;;;;;;;179.47;89.33;;;;;;;;;;766869;180;919951;-66
2023/03/03 02:13:41;;;;;;;152.70;79.27;;;;;;;;;;757760;182;913576;-66
2023/03/03 02:16:07;;;;;;;163.07;82.33;;;;;;;;;;753356;183;819428;-64
2023/03/03 02:18:33;;;;;;;144.67;73.07;;;;;;;;;;767535;181;923298;-68
2023/03/03 02:21:01;;;;;;;113.03;64.77;;;;;;;;;;773249;180;946619;-66
2023/03/03 02:23:29;;;;;;;116.80;65.80;;;;;;;;;;777722;181;633310;-65
2023/03/03 02:26:04;;;;;;;115.23;62.90;;;;;;;;;;775417;181;797996;-67
2023/03/03 02:28:30;;;;;;;109.53;63.17;;;;;;;;;;772491;181;915619;-69
2023/03/03 02:30:56;;;;;;;122.13;69.17;;;;;;;;;;777376;180;810982;-69
2023/03/03 02:33:22;;;;;;;138.03;75.97;;;;;;;;;;770339;181;1023175;-65
2023/03/03 02:35:48;;;;;;;131.43;69.33;;;;;;;;;;769252;180;917976;-67
2023/03/03 02:38:15;;;;;;;124.25;71.18;;;;;;;;;;778131;181;919817;-68
2023/03/03 02:40:42;;;;;;;119.33;64.03;;;;;;;;;;771998;181;916413;-66
2023/03/03 02:43:08;;;;;;;122.87;69.50;;;;;;;;;;771096;181;1022844;-66
2023/03/03 02:45:34;;;;;;;129.03;70.90;;;;;;;;;;767870;183;917605;-66
2023/03/03 02:48:00;;;;;;;127.03;69.10;;;;;;;;;;768306;180;918387;-68
2023/03/03 02:50:26;;;;;;;122.13;66.90;;;;;;;;;;769939;180;920025;-68
2023/03/03 02:52:51;;;;;;;115.07;67.23;;;;;;;;;;772348;182;919026;-68
2023/03/03 02:55:17;;;;;;;131.15;72.05;;;;;;;;;;772017;181;920437;-67
2023/03/03 02:57:43;;;;;;;117.87;65.43;;;;;;;;;;772637;180;918037;-68
2023/03/03 03:00:09;;;;;;;110.73;64.20;;;;;;;;;;770738;181;918920;-66
2023/03/03 03:02:35;;;;;;;110.57;60.43;;;;;;;;;;776742;181;937523;-68
2023/03/03 03:05:01;;;;;;;120.37;67.78;;;;;;;;;;771823;181;919385;-66
2023/03/03 03:07:27;;;;;;;123.67;64.30;;;;;;;;;;772095;180;911898;-67
2023/03/03 03:09:53;;;;;;;115.57;66.30;;;;;;;;;;773805;181;917358;-68
2023/03/03 03:12:20;;;;;;;112.50;62.30;;;;;;;;;;763738;180;919922;-65
2023/03/03 03:14:44;;;;;;;119.57;70.00;;;;;;;;;;767815;179;919348;-67
2023/03/03 03:17:11;;;;;;;131.60;72.27;;;;;;;;;;773637;180;917998;-66
2023/03/03 03:19:36;;;;;;;123.50;71.93;;;;;;;;;;772963;180;920477;-67
2023/03/03 03:22:02;;;;;;;115.83;64.10;;;;;;;;;;766617;180;919205;-67
2023/03/03 03:24:28;;;;;;;114.10;73.33;;;;;;;;;;769663;180;1123140;-68
2023/03/03 03:26:54;;;;;;;131.33;73.53;;;;;;;;;;777446;179;903586;-66
2023/03/03 03:29:20;;;;;;;131.30;71.57;;;;;;;;;;772723;180;918022;-66
2023/03/03 03:31:45;;;;;;;124.07;69.12;;;;;;;;;;772955;180;918884;-65
2023/03/03 03:34:11;;;;;;;110.03;64.23;;;;;;;;;;774211;182;922382;-68
2023/03/03 03:36:38;;;;;;;122.20;71.70;;;;;;;;;;768450;181;920055;-67
2023/03/03 03:39:05;;;;;;;117.70;67.30;;;;;;;;;;768579;181;919814;-68
2023/03/03 03:41:29;;;;;;;121.60;70.10;;;;;;;;;;771109;180;916168;-67
2023/03/03 03:43:55;;;;;;;135.70;70.05;;;;;;;;;;766869;179;820022;-67
2023/03/03 03:46:21;;;;;;;120.77;68.87;;;;;;;;;;770198;181;918785;-66
2023/03/03 03:48:46;;;;;;;134.30;73.60;;;;;;;;;;773184;181;918539;-67
2023/03/03 03:51:12;;;;;;;139.20;70.68;;;;;;;;;;768069;183;745068;-67
2023/03/03 03:53:38;;;;;;;116.47;67.70;;;;;;;;;;767793;180;918696;-67
2023/03/03 03:56:04;;;;;;;126.30;69.87;;;;;;;;;;769812;181;918879;-66
2023/03/03 03:58:30;;;;;;;124.50;69.63;;;;;;;;;;773898;181;815687;-68
2023/03/03 04:00:56;;;;;;;124.70;67.77;;;;;;;;;;767411;181;916778;-68
2023/03/03 04:03:22;;;;;;;125.87;72.97;;;;;;;;;;768486;179;921812;-68
2023/03/03 04:05:49;;;;;;;141.57;78.33;;;;;;;;;;780540;180;915205;-66
2023/03/03 04:08:14;;;;;;;113.20;63.43;;;;;;;;;;768714;181;1002931;-70
2023/03/03 04:10:40;;;;;;;146.13;67.30;;;;;;;;;;772873;181;920324;-66
2023/03/03 04:13:05;;;;;;;142.60;73.63;;;;;;;;;;773456;182;919251;-67
2023/03/03 04:15:31;;;;;;;127.00;71.50;;;;;;;;;;766147;182;919294;-67
2023/03/03 04:17:57;;;;;;;131.97;69.87;;;;;;;;;;766476;181;919513;-67
2023/03/03 04:20:23;;;;;;;137.43;63.10;;;;;;;;;;767375;181;940394;-66
2023/03/03 04:22:49;;;;;;;131.30;60.60;;;;;;;;;;773439;181;919866;-63
2023/03/03 04:25:15;;;;;;;121.07;64.80;;;;;;;;;;772081;180;917865;-67
2023/03/03 04:27:42;;;;;;;123.67;56.73;;;;;;;;;;771412;181;918917;-67
2023/03/03 04:30:07;;;;;;;134.73;62.00;;;;;;;;;;777044;181;918949;-68
2023/03/03 04:32:33;;;;;;;117.07;61.00;;;;;;;;;;776452;180;815940;-67
2023/03/03 04:34:58;;;;;;;118.32;65.22;;;;;;;;;;774069;181;921512;-66
2023/03/03 04:37:24;;;;;;;127.63;63.33;;;;;;;;;;779286;180;919917;-67
2023/03/03 04:39:50;;;;;;;119.80;59.37;;;;;;;;;;770838;180;919590;-67
2023/03/03 04:42:16;;;;;;;133.73;67.12;;;;;;;;;;769678;181;814451;-66
2023/03/03 04:44:42;;;;;;;118.73;62.30;;;;;;;;;;772061;181;919192;-68
2023/03/03 04:47:08;;;;;;;113.27;57.17;;;;;;;;;;773616;181;918875;-68
2023/03/03 04:49:34;;;;;;;126.00;63.97;;;;;;;;;;771794;181;916765;-68
2023/03/03 04:51:59;;;;;;;108.20;61.80;;;;;;;;;;771585;181;920063;-67
2023/03/03 04:54:25;;;;;;;133.50;65.40;;;;;;;;;;775289;181;916636;-69
2023/03/03 04:56:51;;;;;;;125.10;65.53;;;;;;;;;;769202;180;918575;-67
2023/03/03 04:59:17;;;;;;;116.27;61.20;;;;;;;;;;769261;181;818470;-68
2023/03/03 05:01:45;;;;;;;118.47;62.97;;;;;;;;;;776147;181;920613;-68
2023/03/03 05:04:09;;;;;;;115.80;60.80;;;;;;;;;;770627;181;919372;-68
2023/03/03 05:06:35;;;;;;;114.13;62.13;;;;;;;;;;771528;180;919112;-66
2023/03/03 05:09:00;;;;;;;128.43;60.80;;;;;;;;;;769877;181;930566;-69
2023/03/03 05:11:26;;;;;;;111.93;61.07;;;;;;;;;;774266;177;918076;-67
2023/03/03 05:13:52;;;;;;;123.87;63.40;;;;;;;;;;766649;180;925447;-69
2023/03/03 05:16:18;;;;;;;115.60;60.37;;;;;;;;;;772400;181;816897;-69
2023/03/03 05:18:44;;;;;;;104.20;56.23;;;;;;;;;;775017;181;918457;-65
2023/03/03 05:21:10;;;;;;;113.67;60.80;;;;;;;;;;772285;180;919462;-67
2023/03/03 05:23:36;;;;;;;116.47;59.77;;;;;;;;;;771577;181;819903;-67
2023/03/03 05:26:02;;;;;;;115.63;60.67;;;;;;;;;;773687;181;816781;-68
2023/03/03 05:28:27;;;;;;;114.77;60.63;;;;;;;;;;770582;180;922454;-68
2023/03/03 05:30:53;;;;;;;120.87;62.60;;;;;;;;;;763461;182;916091;-65
2023/03/03 05:33:19;;;;;;;115.57;58.87;;;;;;;;;;774895;181;911310;-65
2023/03/03 05:35:45;;;;;;;123.00;65.27;;;;;;;;;;771442;180;917630;-65
2023/03/03 05:38:11;;;;;;;141.30;79.17;;;;;;;;;;763968;180;918720;-65
2023/03/03 05:40:37;;;;;;;129.77;72.07;;;;;;;;;;767124;180;912230;-65
2023/03/03 05:43:02;;;;;;;134.37;68.43;;;;;;;;;;779298;179;1025466;-63
2023/03/03 05:45:28;;;;;;;168.87;88.28;;;;;;;;;;771720;180;917315;-67
2023/03/03 05:47:54;;;;;;;140.27;73.73;;;;;;;;;;771151;180;1020051;-67
2023/03/03 05:50:20;;;;;;;166.00;75.70;;;;;;;;;;775985;180;1021041;-66
2023/03/03 05:52:47;;;;;;;121.43;60.47;;;;;;;;;;769645;180;917878;-65
2023/03/03 05:55:12;;;;;;;121.97;67.67;;;;;;;;;;770416;181;943060;-65
2023/03/03 05:57:38;;;;;;;141.93;75.63;;;;;;;;;;776197;181;817923;-68
2023/03/03 06:00:04;;;;;;;121.73;64.90;;;;;;;;;;775917;181;640064;-68
2023/03/03 06:02:30;;;;;;;145.07;69.50;;;;;;;;;;772827;181;634222;-69
2023/03/03 06:04:56;;;;;;;119.43;60.73;;;;;;;;;;772406;180;630151;-68
2023/03/03 06:07:22;;;;;;;113.33;56.37;;;;;;;;;;771884;179;917960;-67
2023/03/03 06:09:48;;;;;;;121.20;63.73;;;;;;;;;;770549;181;923703;-69
2023/03/03 06:12:14;;;;;;;145.27;67.10;;;;;;;;;;768352;179;915979;-65
2023/03/03 06:14:40;;;;;;;121.93;65.90;;;;;;;;;;772894;181;816330;-65
2023/03/03 06:17:05;;;;;;;113.53;58.50;;;;;;;;;;769933;179;918821;-66
2023/03/03 06:19:31;;;;;;;124.53;53.43;;;;;;;;;;768052;181;919891;-65
2023/03/03 06:21:57;;;;;;;152.20;71.30;;;;;;;;;;772622;181;916134;-67
2023/03/03 06:24:25;;;;;;;157.93;74.75;;;;;;;;;;764877;180;918642;-65
2023/03/03 06:26:49;;;;;;;133.77;64.00;;;;;;;;;;769795;180;919510;-67
2023/03/03 06:29:15;;;;;;;91.00;44.77;;;;;;;;;;767913;180;920884;-65
2023/03/03 06:31:41;;;;;;;123.33;64.00;;;;;;;;;;771171;179;936143;-65
2023/03/03 06:34:06;;;;;;;85.17;45.47;;;;;;;;;;772386;180;919439;-67
2023/03/03 06:36:32;;;;;;;143.93;63.33;;;;;;;;;;770447;180;910886;-67
2023/03/03 06:38:59;;;;;;;133.97;62.60;;;;;;;;;;774753;181;819656;-66
2023/03/03 06:41:24;;;;;;;129.33;55.57;;;;;;;;;;774098;180;1017930;-66
2023/03/03 06:43:50;;;;;;;116.55;49.78;;;;;;;;;;771078;180;874181;-66
2023/03/03 06:46:16;;;;;;;122.40;50.00;;;;;;;;;;776317;181;816865;-67
2023/03/03 06:48:42;;;;;;;134.60;61.43;;;;;;;;;;771374;181;911706;-66
2023/03/03 06:51:28;;;;;;;127.95;57.90;;;;;;;;;;771203;181;909388;-64
2023/03/03 06:53:54;;;;;;;154.23;69.60;;;;;;;;;;765218;180;809896;-65
2023/03/03 06:56:20;;;;;;;106.80;44.87;;;;;;;;;;766917;179;904152;-66
2023/03/03 06:58:46;;;;;;;102.07;42.57;;;;;;;;;;776534;180;856010;-65
2023/03/03 07:01:13;;;;;;;164.37;61.03;;;;;;;;;;769785;181;1008012;-66
2023/03/03 07:03:39;;;;;;;154.93;75.63;;;;;;;;;;770397;181;912787;-65
2023/03/03 07:06:06;;;;;;;121.27;57.30;;;;;;;;;;777130;181;918357;-66
2023/03/03 07:08:31;;;;;;;89.27;41.60;;;;;;;;;;770305;181;918184;-67
2023/03/03 07:10:57;;;;;;;107.27;49.03;;;;;;;;;;771188;181;916875;-68
2023/03/03 07:13:24;;;;;;;85.68;42.88;;;;;;;;;;773450;181;918362;-65
2023/03/03 07:15:50;;;;;;;81.97;38.13;;;;;;;;;;757545;183;913435;-65
2023/03/03 07:18:31;;;;;;;107.27;47.03;;;;;;;;;;770886;180;921471;-65
2023/03/03 07:20:57;;;;;;;117.30;57.27;;;;;;;;;;766180;180;884268;-65
2023/03/03 07:23:24;;;;;;;81.90;37.30;;;;;;;;;;769186;181;919173;-65
2023/03/03 07:25:50;;;;;;;96.13;43.93;;;;;;;;;;778210;181;819153;-65
2023/03/03 07:28:19;;;;;;;124.93;54.83;;;;;;;;;;768546;181;920744;-67
2023/03/03 07:30:45;;;;;;;145.30;56.20;;;;;;;;;;772807;180;920649;-65
2023/03/03 07:33:22;;;;;;;124.57;56.03;;;;;;;;;;774446;180;918458;-64
2023/03/03 07:35:48;;;;;;;124.20;51.77;;;;;;;;;;768132;183;714202;-65
2023/03/03 07:38:16;;;;;;;70.63;36.17;;;;;;;;;;767695;180;916920;-65
2023/03/03 07:40:41;;;;;;;111.73;56.13;;;;;;;;;;769792;181;915885;-67
2023/03/03 07:43:13;;;;;;;90.20;45.33;;;;;;;;;;775575;181;716159;-67
2023/03/03 07:45:39;;;;;;;133.67;60.30;;;;;;;;;;767106;182;940428;-64
2023/03/03 07:48:08;;;;;;;74.23;36.67;;;;;;;;;;770984;180;915547;-67
2023/03/03 07:50:34;;;;;;;115.72;49.00;;;;;;;;;;770790;181;876380;-64
2023/03/03 07:53:00;;;;;;;127.27;53.27;;;;;;;;;;775015;180;919131;-64
2023/03/03 07:55:41;;;;;;;120.70;47.87;;;;;;;;;;768019;180;921261;-64
2023/03/03 07:58:19;;;;;;;119.97;51.43;;;;;;;;;;769255;180;918114;-66
2023/03/03 08:01:01;;;;;;;119.10;47.07;;;;;;;;;;767670;179;919418;-64
2023/03/03 08:03:27;;;;;;;83.80;48.27;;;;;;;;;;767743;180;911444;-67
2023/03/03 08:05:53;;;;;;;120.73;53.17;;;;;;;;;;770883;179;915332;-68
2023/03/03 08:08:19;;;;;;;127.13;56.63;;;;;;;;;;774536;179;919436;-65
2023/03/03 08:10:49;;;;;;;138.37;53.20;;;;;;;;;;773271;180;918663;-67
2023/03/03 08:13:16;;;;;;;70.53;33.13;;;;;;;;;;775497;181;919953;-66
2023/03/03 08:15:42;;;;;;;102.20;48.70;;;;;;;;;;773422;180;910636;-66
2023/03/03 08:18:17;;;;;;;117.80;49.80;;;;;;;;;;775699;181;918425;-64
2023/03/03 08:20:44;;;;;;;76.03;36.90;;;;;;;;;;763036;182;826601;-66
2023/03/03 08:23:09;;;;;;;138.53;60.47;;;;;;;;;;769401;181;881746;-64
2023/03/03 08:25:35;;;;;;;108.73;51.67;;;;;;;;;;774031;180;916212;-66
2023/03/03 08:28:01;;;;;;;134.43;59.33;;;;;;;;;;776881;181;809666;-67
2023/03/03 08:30:27;;;;;;;80.83;33.87;;;;;;;;;;770161;180;816101;-65
2023/03/03 08:32:53;;;;;;;123.70;55.63;;;;;;;;;;772486;181;917348;-67
2023/03/03 08:35:18;;;;;;;118.20;50.30;;;;;;;;;;775211;181;911185;-67
2023/03/03 08:37:44;;;;;;;104.77;41.93;;;;;;;;;;771074;180;1014156;-65
2023/03/03 08:40:11;;;;;;;117.85;53.10;;;;;;;;;;744725;186;856343;-66
2023/03/03 08:42:36;;;;;;;156.98;62.38;;;;;;;;;;762378;184;919105;-64
2023/03/03 08:45:02;;;;;;;117.20;48.10;;;;;;;;;;762733;182;933292;-65
2023/03/03 08:47:28;;;;;;;60.57;30.87;;;;;;;;;;771355;180;922087;-65
2023/03/03 08:49:54;;;;;;;69.77;28.60;;;;;;;;;;769712;181;915830;-66
2023/03/03 08:52:20;;;;;;;103.37;48.90;;;;;;;;;;778061;180;814220;-66
2023/03/03 08:54:46;;;;;;;128.30;57.58;;;;;;;;;;767805;181;917571;-66
2023/03/03 08:57:12;;;;;;;114.13;44.50;;;;;;;;;;770229;181;918325;-65
2023/03/03 08:59:38;;;;;;;138.17;58.23;;;;;;;;;;771859;180;816270;-68
2023/03/03 09:02:04;;;;;;;98.12;39.25;;;;;;;;;;769554;181;816230;-65
2023/03/03 09:04:30;;;;;;;114.40;51.57;;;;;;;;;;768579;181;943366;-68
2023/03/03 09:06:56;;;;;;;100.73;40.20;;;;;;;;;;770822;181;815108;-67
2023/03/03 09:09:22;;;;;;;96.10;44.93;;;;;;;;;;768050;181;868128;-67
2023/03/03 09:11:48;;;;;;;97.57;40.63;;;;;;;;;;769053;181;885478;-65
2023/03/03 09:14:13;;;;;;;48.50;28.73;;;;;;;;;;770269;181;918887;-66
2023/03/03 09:16:39;;;;;;;95.27;41.07;;;;;;;;;;777281;178;919151;-66
2023/03/03 09:19:21;;;;;;;70.83;34.07;;;;;;;;;;767373;180;921852;-67
2023/03/03 09:21:47;;;;;;;71.13;33.07;;;;;;;;;;772158;179;1019172;-65
2023/03/03 09:24:13;;;;;;;78.47;30.67;;;;;;;;;;774115;180;850765;-66
2023/03/03 09:26:39;;;;;;;107.23;44.83;;;;;;;;;;774878;181;918910;-65
2023/03/03 09:29:05;;;;;;;69.93;34.30;;;;;;;;;;770421;180;883239;-65
2023/03/03 09:31:34;;;;;;;96.50;43.80;;;;;;;;;;769664;181;918478;-66
2023/03/03 09:34:00;;;;;;;82.83;36.13;;;;;;;;;;775603;181;919380;-65
2023/03/03 09:36:41;;;;;;;73.10;32.17;;;;;;;;;;772181;180;918415;-66
2023/03/03 09:39:14;;;;;;;67.33;26.50;;;;;;;;;;770586;181;921509;-65
2023/03/03 09:41:44;;;;;;;63.50;31.43;;;;;;;;;;769201;181;1011424;-65
2023/03/03 09:44:16;;;;;;;74.30;35.43;;;;;;;;;;767364;181;920709;-65
2023/03/03 09:46:46;;;;;;;72.67;30.53;;;;;;;;;;768665;181;931729;-66
2023/03/03 09:49:27;;;;;;;86.03;41.50;;;;;;;;;;778645;181;813241;-67
2023/03/03 09:51:54;;;;;;;90.50;38.00;;;;;;;;;;773167;180;633129;-65
2023/03/03 09:54:26;;;;;;;91.93;37.60;;;;;;;;;;773588;180;625834;-67
2023/03/03 09:56:54;;;;;;;99.80;40.60;;;;;;;;;;772554;181;621221;-65
2023/03/03 09:59:20;;;;;;;85.33;37.07;;;;;;;;;;770684;181;919403;-66
2023/03/03 10:01:49;;;;;;;72.10;31.40;;;;;;;;;;770861;181;818084;-66
2023/03/03 10:04:25;;;;;;;87.20;39.50;;;;;;;;;;773355;181;797926;-66
2023/03/03 10:06:54;;;;;;;75.03;34.77;;;;;;;;;;770491;179;1029460;-66
2023/03/03 10:09:35;;;;;;;67.90;29.93;;;;;;;;;;770097;179;861521;-66
2023/03/03 10:12:06;;;;;;;75.67;35.53;;;;;;;;;;755447;182;919297;-68
2023/03/03 10:14:38;;;;;;;81.63;38.97;;;;;;;;;;773760;180;912830;-68
2023/03/03 10:17:06;;;;;;;89.77;37.90;;;;;;;;;;765329;181;817082;-69
2023/03/03 10:19:35;;;;;;;59.03;30.90;;;;;;;;;;763893;181;815824;-67
2023/03/03 10:22:06;;;;;;;47.17;24.27;;;;;;;;;;770877;180;817695;-66
2023/03/03 10:24:35;;;;;;;67.83;29.73;;;;;;;;;;767211;181;916303;-68
2023/03/03 10:27:04;;;;;;;51.63;26.37;;;;;;;;;;763576;181;912381;-68
2023/03/03 10:29:50;;;;;;;87.30;35.57;;;;;;;;;;768425;180;917170;-69
2023/03/03 10:32:20;;;;;;;81.70;34.53;;;;;;;;;;771758;180;855546;-67
2023/03/03 10:34:47;;;;;;;88.13;43.43;;;;;;;;;;771726;181;915128;-67
2023/03/03 10:37:19;;;;;;;65.30;28.27;;;;;;;;;;773432;180;919171;-68
2023/03/03 10:39:47;;;;;;;73.43;36.60;;;;;;;;;;774512;180;919911;-70
2023/03/03 10:42:14;;;;;;;63.87;29.52;;;;;;;;;;770116;181;913993;-65
2023/03/03 10:44:55;;;;;;;68.97;33.17;;;;;;;;;;771134;179;916906;-65
2023/03/03 10:47:24;;;;;;;43.07;22.23;;;;;;;;;;764684;181;917838;-65
2023/03/03 10:50:05;;;;;;;61.67;29.60;;;;;;;;;;769465;180;932767;-68
2023/03/03 10:52:30;;;;;;;64.20;32.20;;;;;;;;;;765766;181;918990;-65
2023/03/03 10:54:56;;;;;;;53.43;27.47;;;;;;;;;;776112;180;950209;-67
2023/03/03 10:57:22;;;;;;;64.83;31.03;;;;;;;;;;771100;181;817860;-66
2023/03/03 10:59:51;;;;;;;65.20;28.50;;;;;;;;;;768531;181;808356;-68
2023/03/03 11:02:26;;;;;;;73.03;35.43;;;;;;;;;;773512;181;817590;-65
2023/03/03 11:04:54;;;;;;;51.80;28.87;;;;;;;;;;767927;181;917796;-66
2023/03/03 11:07:39;;;;;;;65.70;36.43;;;;;;;;;;770037;180;821347;-65
2023/03/03 11:10:06;;;;;;;65.60;28.10;;;;;;;;;;767387;181;818291;-67
2023/03/03 11:12:32;;;;;;;76.63;34.43;;;;;;;;;;764626;181;915118;-69
2023/03/03 11:15:02;;;;;;;72.28;33.15;;;;;;;;;;773794;180;714738;-68
2023/03/03 11:17:29;;;;;;;89.87;41.47;;;;;;;;;;756959;182;915977;-65
2023/03/03 11:20:01;;;;;;;90.47;36.38;;;;;;;;;;769382;181;826216;-68
2023/03/03 11:22:29;;;;;;;83.67;41.47;;;;;;;;;;771060;181;917106;-68
2023/03/03 11:25:05;;;;;;;80.53;39.23;;;;;;;;;;769887;181;916059;-67
2023/03/03 11:27:48;;;;;;;48.53;22.47;;;;;;;;;;768277;179;940362;-67
2023/03/03 11:30:34;;;;;;;73.10;33.87;;;;;;;;;;762134;183;920290;-68
2023/03/03 11:32:59;;;;;;;80.33;37.60;;;;;;;;;;765005;182;917879;-68
2023/03/03 11:35:26;;;;;;;46.40;22.53;;;;;;;;;;769517;180;919003;-67
2023/03/03 11:38:07;;;;;;;41.60;18.50;;;;;;;;;;768239;180;919239;-68
2023/03/03 11:40:38;;;;;;;55.70;27.53;;;;;;;;;;774077;178;816073;-66
2023/03/03 11:43:10;;;;;;;62.50;27.83;;;;;;;;;;771242;180;916352;-68
2023/03/03 11:45:39;;;;;;;58.23;28.70;;;;;;;;;;774544;180;1016197;-67
2023/03/03 11:48:05;;;;;;;88.00;38.50;;;;;;;;;;770780;179;922719;-67
2023/03/03 11:50:34;;;;;;;105.40;49.50;;;;;;;;;;771094;180;946945;-66
2023/03/03 11:53:00;;;;;;;94.73;40.97;;;;;;;;;;770474;180;919584;-68
2023/03/03 11:55:26;;;;;;;74.00;35.37;;;;;;;;;;776654;180;827308;-68
2023/03/03 11:57:53;;;;;;;72.53;34.60;;;;;;;;;;769479;180;818466;-69
2023/03/03 12:00:25;;;;;;;47.97;25.47;;;;;;;;;;771711;179;924397;-66
2023/03/03 12:02:51;;;;;;;56.43;22.60;;;;;;;;;;770649;181;907688;-68
2023/03/03 12:05:33;;;;;;;59.43;24.23;;;;;;;;;;774894;181;915771;-66
2023/03/03 12:08:09;;;;;;;94.10;33.07;;;;;;;;;;766152;180;813059;-66
2023/03/03 12:10:35;;;;;;;57.30;25.27;;;;;;;;;;767054;182;738618;-66
2023/03/03 12:13:02;;;;;;;57.17;30.00;;;;;;;;;;773776;181;783189;-65
2023/03/03 12:15:32;;;;;;;70.27;29.70;;;;;;;;;;772308;180;919474;-67
2023/03/03 12:18:16;;;;;;;55.40;26.27;;;;;;;;;;775944;180;819879;-69
2023/03/03 12:20:48;;;;;;;69.23;34.63;;;;;;;;;;762433;182;918537;-67
2023/03/03 12:23:17;;;;;;;84.33;36.43;;;;;;;;;;764506;183;817721;-68
2023/03/03 12:25:45;;;;;;;62.40;28.30;;;;;;;;;;768356;181;918663;-68
2023/03/03 12:28:26;;;;;;;65.87;31.80;;;;;;;;;;771408;180;865865;-69
2023/03/03 12:31:07;;;;;;;78.43;35.85;;;;;;;;;;766419;180;919494;-68
2023/03/03 12:33:38;;;;;;;60.50;31.37;;;;;;;;;;767272;181;918982;-66
2023/03/03 12:36:05;;;;;;;45.10;26.40;;;;;;;;;;774294;181;920968;-66
2023/03/03 12:38:34;;;;;;;44.90;26.40;;;;;;;;;;769705;180;808740;-70
2023/03/03 12:41:02;;;;;;;38.20;20.40;;;;;;;;;;768042;181;931778;-66
2023/03/03 12:43:44;;;;;;;51.33;25.47;;;;;;;;;;770147;180;811440;-66
2023/03/03 12:46:27;;;;;;;87.67;37.47;;;;;;;;;;765652;178;916706;-68
2023/03/03 12:48:53;;;;;;;76.80;35.07;;;;;;;;;;768608;179;814562;-68
2023/03/03 12:51:31;;;;;;;55.63;27.70;;;;;;;;;;774615;180;824344;-70
2023/03/03 12:53:57;;;;;;;100.33;42.53;;;;;;;;;;768961;181;816871;-66
2023/03/03 12:56:23;;;;;;;77.53;34.87;;;;;;;;;;771601;181;818205;-73
2023/03/03 12:58:51;;;;;;;81.67;35.47;;;;;;;;;;771327;181;916672;-68
2023/03/03 13:01:22;;;;;;;81.53;36.00;;;;;;;;;;776377;180;818165;-69
2023/03/03 13:03:48;;;;;;;89.53;32.87;;;;;;;;;;769284;183;817323;-66
2023/03/03 13:06:20;;;;;;;91.77;40.87;;;;;;;;;;767297;180;918733;-69
2023/03/03 13:08:46;;;;;;;70.00;33.20;;;;;;;;;;771238;180;913131;-67
2023/03/03 13:11:12;;;;;;;66.37;32.90;;;;;;;;;;772659;180;914126;-68
2023/03/03 13:13:38;;;;;;;46.93;18.40;;;;;;;;;;776629;181;646839;-70
2023/03/03 13:16:04;;;;;;;69.17;35.57;;;;;;;;;;768838;179;907080;-69
2023/03/03 13:18:30;;;;;;;70.00;32.27;;;;;;;;;;767389;181;815753;-66
2023/03/03 13:20:56;;;;;;;76.43;34.40;;;;;;;;;;768987;180;917312;-69
2023/03/03 13:23:31;;;;;;;67.87;32.67;;;;;;;;;;771675;179;902197;-68
2023/03/03 13:25:57;;;;;;;45.53;20.07;;;;;;;;;;770894;180;858449;-69
2023/03/03 13:28:25;;;;;;;48.28;25.90;;;;;;;;;;772800;181;920620;-69
2023/03/03 13:30:53;;;;;;;60.20;26.33;;;;;;;;;;774144;179;919105;-67
2023/03/03 13:33:21;;;;;;;54.90;25.67;;;;;;;;;;763897;180;930960;-65
2023/03/03 13:35:49;;;;;;;57.77;22.30;;;;;;;;;;772270;180;721199;-68
2023/03/03 13:38:15;;;;;;;58.95;26.60;;;;;;;;;;773858;181;918907;-65
2023/03/03 13:40:45;;;;;;;63.83;28.37;;;;;;;;;;769447;180;923920;-65
2023/03/03 13:43:17;;;;;;;43.90;21.30;;;;;;;;;;767017;181;918551;-67
2023/03/03 13:45:48;;;;;;;57.03;26.73;;;;;;;;;;770076;181;916159;-67
2023/03/03 13:48:14;;;;;;;48.90;23.20;;;;;;;;;;768144;181;1003827;-68
2023/03/03 13:50:44;;;;;;;48.67;25.12;;;;;;;;;;753269;183;718398;-65
2023/03/03 13:53:11;;;;;;;38.93;20.53;;;;;;;;;;769112;180;910492;-69
2023/03/03 13:55:40;;;;;;;55.87;28.93;;;;;;;;;;773338;180;920860;-66
2023/03/03 13:58:10;;;;;;;61.03;29.30;;;;;;;;;;773811;181;908309;-68
2023/03/03 14:00:53;;;;;;;48.33;25.53;;;;;;;;;;768416;180;918973;-66